OOCL Kaohsiung — 9V9830 — position and weather

sailwx.info

Track history (hours):
 
Tides and Currents Weather Stations Pressure Air Temp Water Temp Dewpoint Dewpoint Depression Visibility Wind Speed Wind Dir Waves Ship Positions

OOCL Kaohsiung

Last reported at 2015-Jul-25 02:31 UTC. Time now 2015-Jul-29 15:57 UTC.
Position N 31°10' E 122°52'.

Length 280 m; draft 11.4 m.

Type: Cargo ship. MMSI: 566389000.

Date/timePositionNaut miles runAvg speedWind from/ knotsBaromVisibWave heightAir tempDewpointWater temp
2015-Jul-25 02:31N 31°10' E 122°52'2814.5
2015-Jul-25 00:33N 31°06' E 122°19'1514.8
2015-Jul-24 23:33N 31°14' E 122°04'1514.9
2015-Jul-24 22:34N 31°18' E 121°47'1211.5
2015-Jul-24 21:31N 31°23' E 121°35'0 0.2
2015-Jul-24 20:31N 31°23' E 121°35'0 0.0
2015-Jul-24 19:31N 31°23' E 121°35'0 0.0
2015-Jul-24 18:31N 31°23' E 121°35'0 0.0
2015-Jul-24 17:31N 31°23' E 121°35'0 0.0
2015-Jul-24 16:22N 31°23' E 121°35'0 0.0
2015-Jul-24 15:31N 31°23' E 121°35'0 0.0
2015-Jul-24 14:28N 31°23' E 121°35'0 0.0
2015-Jul-24 13:31N 31°23' E 121°35'0 0.0
2015-Jul-24 12:31N 31°23' E 121°35'0 0.0
2015-Jul-24 11:31N 31°23' E 121°35'0 0.0
2015-Jul-24 10:32N 31°23' E 121°35'0 0.0
2015-Jul-24 09:28N 31°23' E 121°35'0 0.0
2015-Jul-24 08:31N 31°23' E 121°35'0 0.0
2015-Jul-24 07:31N 31°23' E 121°35'0 0.0
2015-Jul-24 06:31N 31°23' E 121°35'0 0.0
2015-Jul-24 05:31N 31°23' E 121°35'0 0.0
2015-Jul-24 04:31N 31°23' E 121°35'0 0.0
2015-Jul-24 03:32N 31°23' E 121°35'0 0.0
2015-Jul-24 02:31N 31°23' E 121°35'0 0.0
2015-Jul-24 01:31N 31°23' E 121°35'0 0.0
2015-Jul-24 00:31N 31°23' E 121°35'0 0.0
2015-Jul-23 23:31N 31°23' E 121°35'0 0.0
2015-Jul-23 22:31N 31°23' E 121°35'0 0.0
2015-Jul-23 21:31N 31°23' E 121°35'0 0.5
2015-Jul-23 20:33N 31°23' E 121°34'8 7.7
2015-Jul-23 19:33N 31°20' E 121°42'10 9.7
2015-Jul-23 18:33N 31°16' E 121°53'9 9.1
2015-Jul-23 17:33N 31°14' E 122°03'8 8.0
2015-Jul-23 16:33N 31°10' E 122°11'9 8.6
2015-Jul-23 15:33N 31°06' E 122°20'10 9.7
2015-Jul-23 14:30N 31°07' E 122°32'5 5.0
2015-Jul-23 13:24N 31°09' E 122°38'3 1.5
2015-Jul-23 11:27N 31°11' E 122°37'0 0.1
2015-Jul-23 09:33N 31°11' E 122°37'81 6.3
2015-Jul-22 20:34N 29°50' E 122°43'1412.1
2015-Jul-22 19:26N 29°43' E 122°29'1112.2
2015-Jul-22 18:33N 29°46' E 122°17'10 9.6
2015-Jul-22 17:31N 29°54' E 122°10'10 8.9
2015-Jul-22 16:25N 29°57' E 121°60'8 9.2
2015-Jul-22 15:33N 29°57' E 121°51'0 0.1
2015-Jul-22 13:15N 29°57' E 121°50'0 0.0
2015-Jul-22 10:03N 29°57' E 121°50'1 0.2
2015-Jul-22 06:19N 29°57' E 121°51'3 1.0
2015-Jul-22 03:15N 29°57' E 121°55'8 8.0
2015-Jul-22 02:16N 29°55' E 122°03'2 1.7
2015-Jul-22 01:23N 29°54' E 122°02'0 0.0
2015-Jul-22 00:29N 29°54' E 122°02'0 0.1
2015-Jul-21 23:29N 29°54' E 122°02'0 0.1
2015-Jul-21 22:29N 29°54' E 122°02'0 0.0
2015-Jul-21 21:29N 29°54' E 122°02'0 0.0
2015-Jul-21 20:29N 29°54' E 122°02'0 0.0
2015-Jul-21 19:29N 29°54' E 122°02'0 0.0
2015-Jul-21 18:17N 29°54' E 122°02'0 0.0
2015-Jul-21 16:29N 29°54' E 122°02'0 0.0
2015-Jul-21 15:29N 29°54' E 122°02'0 0.0
2015-Jul-21 14:29N 29°54' E 122°02'0 0.0
2015-Jul-21 13:23N 29°54' E 122°02'0 0.0
2015-Jul-21 12:29N 29°54' E 122°02'0 0.0
2015-Jul-21 11:29N 29°54' E 122°02'0 0.0
2015-Jul-21 10:29N 29°54' E 122°02'0 0.0
2015-Jul-21 09:29N 29°54' E 122°02'0 0.0
2015-Jul-21 08:23N 29°54' E 122°02'0 0.0
2015-Jul-21 07:33N 29°54' E 122°02'6 6.0
2015-Jul-21 06:33N 29°56' E 122°09'1211.8
2015-Jul-21 05:33N 29°46' E 122°17'7 4.5
2015-Jul-21 04:05N 29°44' E 122°24'0 0.1
2015-Jul-21 03:29N 29°44' E 122°24'0 0.0
2015-Jul-21 02:29N 29°44' E 122°24'0 0.3
2015-Jul-21 01:33N 29°44' E 122°24'6 5.8
2015-Jul-21 00:28N 29°46' E 122°32'10 9.8
2015-Jul-20 23:24N 29°48' E 122°43'  
Track history (hours):
 
Tides and Currents Weather Stations Pressure Air Temp Water Temp Dewpoint Dewpoint Depression Visibility Wind Speed Wind Dir Waves Ship Positions

OOCL Kaohsiung

Last reported at 2015-Jul-25 02:31 UTC. Time now 2015-Jul-29 15:57 UTC.
Position N 31°10' E 122°52'.

Length 280 m; draft 11.4 m.

Type: Cargo ship. MMSI: 566389000.

Date/timePositionNaut miles runAvg speedWind from/ knotsBaromVisibWave heightAir tempDewpointWater temp
2015-Jul-25 02:31N 31°10' E 122°52'2814.5
2015-Jul-25 00:33N 31°06' E 122°19'1514.8
2015-Jul-24 23:33N 31°14' E 122°04'1514.9
2015-Jul-24 22:34N 31°18' E 121°47'1211.5
2015-Jul-24 21:31N 31°23' E 121°35'0 0.2
2015-Jul-24 20:31N 31°23' E 121°35'0 0.0
2015-Jul-24 19:31N 31°23' E 121°35'0 0.0
2015-Jul-24 18:31N 31°23' E 121°35'0 0.0
2015-Jul-24 17:31N 31°23' E 121°35'0 0.0
2015-Jul-24 16:22N 31°23' E 121°35'0 0.0
2015-Jul-24 15:31N 31°23' E 121°35'0 0.0
2015-Jul-24 14:28N 31°23' E 121°35'0 0.0
2015-Jul-24 13:31N 31°23' E 121°35'0 0.0
2015-Jul-24 12:31N 31°23' E 121°35'0 0.0
2015-Jul-24 11:31N 31°23' E 121°35'0 0.0
2015-Jul-24 10:32N 31°23' E 121°35'0 0.0
2015-Jul-24 09:28N 31°23' E 121°35'0 0.0
2015-Jul-24 08:31N 31°23' E 121°35'0 0.0
2015-Jul-24 07:31N 31°23' E 121°35'0 0.0
2015-Jul-24 06:31N 31°23' E 121°35'0 0.0
2015-Jul-24 05:31N 31°23' E 121°35'0 0.0
2015-Jul-24 04:31N 31°23' E 121°35'0 0.0
2015-Jul-24 03:32N 31°23' E 121°35'0 0.0
2015-Jul-24 02:31N 31°23' E 121°35'0 0.0
2015-Jul-24 01:31N 31°23' E 121°35'0 0.0
2015-Jul-24 00:31N 31°23' E 121°35'0 0.0
2015-Jul-23 23:31N 31°23' E 121°35'0 0.0
2015-Jul-23 22:31N 31°23' E 121°35'0 0.0
2015-Jul-23 21:31N 31°23' E 121°35'0 0.5
2015-Jul-23 20:33N 31°23' E 121°34'8 7.7
2015-Jul-23 19:33N 31°20' E 121°42'10 9.7
2015-Jul-23 18:33N 31°16' E 121°53'9 9.1
2015-Jul-23 17:33N 31°14' E 122°03'8 8.0
2015-Jul-23 16:33N 31°10' E 122°11'9 8.6
2015-Jul-23 15:33N 31°06' E 122°20'10 9.7
2015-Jul-23 14:30N 31°07' E 122°32'5 5.0
2015-Jul-23 13:24N 31°09' E 122°38'3 1.5
2015-Jul-23 11:27N 31°11' E 122°37'0 0.1
2015-Jul-23 09:33N 31°11' E 122°37'81 6.3
2015-Jul-22 20:34N 29°50' E 122°43'1412.1
2015-Jul-22 19:26N 29°43' E 122°29'1112.2
2015-Jul-22 18:33N 29°46' E 122°17'10 9.6
2015-Jul-22 17:31N 29°54' E 122°10'10 8.9
2015-Jul-22 16:25N 29°57' E 121°60'8 9.2
2015-Jul-22 15:33N 29°57' E 121°51'0 0.1
2015-Jul-22 13:15N 29°57' E 121°50'0 0.0
2015-Jul-22 10:03N 29°57' E 121°50'1 0.2
2015-Jul-22 06:19N 29°57' E 121°51'3 1.0
2015-Jul-22 03:15N 29°57' E 121°55'8 8.0
2015-Jul-22 02:16N 29°55' E 122°03'2 1.7
2015-Jul-22 01:23N 29°54' E 122°02'0 0.0
2015-Jul-22 00:29N 29°54' E 122°02'0 0.1
2015-Jul-21 23:29N 29°54' E 122°02'0 0.1
2015-Jul-21 22:29N 29°54' E 122°02'0 0.0
2015-Jul-21 21:29N 29°54' E 122°02'0 0.0
2015-Jul-21 20:29N 29°54' E 122°02'0 0.0
2015-Jul-21 19:29N 29°54' E 122°02'0 0.0
2015-Jul-21 18:17N 29°54' E 122°02'0 0.0
2015-Jul-21 16:29N 29°54' E 122°02'0 0.0
2015-Jul-21 15:29N 29°54' E 122°02'0 0.0
2015-Jul-21 14:29N 29°54' E 122°02'0 0.0
2015-Jul-21 13:23N 29°54' E 122°02'0 0.0
2015-Jul-21 12:29N 29°54' E 122°02'0 0.0
2015-Jul-21 11:29N 29°54' E 122°02'0 0.0
2015-Jul-21 10:29N 29°54' E 122°02'0 0.0
2015-Jul-21 09:29N 29°54' E 122°02'0 0.0
2015-Jul-21 08:23N 29°54' E 122°02'0 0.0
2015-Jul-21 07:33N 29°54' E 122°02'6 6.0
2015-Jul-21 06:33N 29°56' E 122°09'1211.8
2015-Jul-21 05:33N 29°46' E 122°17'7 4.5
2015-Jul-21 04:05N 29°44' E 122°24'0 0.1
2015-Jul-21 03:29N 29°44' E 122°24'0 0.0
2015-Jul-21 02:29N 29°44' E 122°24'0 0.3
2015-Jul-21 01:33N 29°44' E 122°24'6 5.8
2015-Jul-21 00:28N 29°46' E 122°32'10 9.8
2015-Jul-20 23:24N 29°48' E 122°43'  

Dump ship's entire track history